YMA7555 EGOV-EGOV

Flight info

Callsign YMA7555
Flight time 1h 8m
Altitude 1500
Route MACH LOOP
Aircraft DC3/M-VGD/A

Departure

Time 2026-05-06 09:39
Airport Anglesey Airport (EGOV)

Arrival

Time 2026-05-06 10:48
Airport Anglesey Airport (EGOV)
Time Latitude Longitude Altitude Speed Heading
2026-05-06 09:30 53.25081 -4.53268 36 ft 0 kts 162°
2026-05-06 09:35 53.25050 -4.53264 36 ft 10 kts 229°
2026-05-06 09:36 53.25011 -4.53461 36 ft 26 kts 286°
2026-05-06 09:36 53.25138 -4.53700 35 ft 28 kts 329°
2026-05-06 09:36 53.25320 -4.53706 35 ft 27 kts
2026-05-06 09:36 53.25505 -4.53670 35 ft 26 kts
2026-05-06 09:37 53.25666 -4.53637 36 ft 17 kts
2026-05-06 09:37 53.25697 -4.53637 36 ft 0 kts 349°
2026-05-06 09:37 53.25710 -4.53643 35 ft 12 kts 339°
2026-05-06 09:37 53.25711 -4.53789 33 ft 20 kts 198°
2026-05-06 09:38 53.25547 -4.53825 38 ft 43 kts 182°
2026-05-06 09:38 53.25099 -4.53898 33 ft 82 kts 187°
2026-05-06 09:38 53.24513 -4.53948 233 ft 88 kts 178°
2026-05-06 09:38 53.23868 -4.53444 255 ft 115 kts 143°
2026-05-06 09:39 53.23160 -4.52719 414 ft 120 kts 152°
2026-05-06 09:39 53.22449 -4.52031 743 ft 117 kts 149°
2026-05-06 09:39 53.21728 -4.51336 1062 ft 123 kts 149°
2026-05-06 09:39 53.20952 -4.50600 1259 ft 133 kts 149°
2026-05-06 09:40 53.20116 -4.49817 1443 ft 143 kts 150°
2026-05-06 09:40 53.19213 -4.48967 1512 ft 155 kts 151°
2026-05-06 09:40 53.17199 -4.47113 1502 ft 173 kts 151°
2026-05-06 09:41 53.16135 -4.46161 1507 ft 175 kts 152°
2026-05-06 09:41 53.15059 -4.45188 1512 ft 177 kts 152°
2026-05-06 09:41 53.13969 -4.44212 1511 ft 176 kts 152°
2026-05-06 09:41 53.12887 -4.43240 1508 ft 176 kts 152°
2026-05-06 09:42 53.11816 -4.42272 1503 ft 176 kts 151°
2026-05-06 09:42 53.10726 -4.41296 1510 ft 179 kts 152°
2026-05-06 09:42 53.09625 -4.40309 1509 ft 180 kts 152°
2026-05-06 09:42 53.08523 -4.39353 1509 ft 182 kts 153°
2026-05-06 09:43 53.07390 -4.38381 1507 ft 182 kts 153°
2026-05-06 09:43 53.06270 -4.37422 1505 ft 181 kts 152°
2026-05-06 09:43 53.05152 -4.36445 1507 ft 181 kts 152°
2026-05-06 09:43 53.04054 -4.35468 1504 ft 178 kts 152°
2026-05-06 09:44 53.02962 -4.34504 1506 ft 178 kts 152°
2026-05-06 09:44 53.01866 -4.33563 1507 ft 177 kts 153°
2026-05-06 09:44 53.00780 -4.32631 1509 ft 175 kts 152°
2026-05-06 09:44 52.99706 -4.31678 1504 ft 175 kts 152°
2026-05-06 09:45 52.98636 -4.30731 1508 ft 174 kts 152°
2026-05-06 09:45 52.97569 -4.29792 1506 ft 173 kts 152°
2026-05-06 09:45 52.96503 -4.28852 1504 ft 174 kts 152°
2026-05-06 09:45 52.95433 -4.27911 1505 ft 175 kts 152°
2026-05-06 09:46 52.94356 -4.26979 1504 ft 174 kts 152°
2026-05-06 09:46 52.93282 -4.26066 1507 ft 173 kts 153°
2026-05-06 09:46 52.92207 -4.25142 1505 ft 174 kts 152°
2026-05-06 09:46 52.91125 -4.24198 1500 ft 177 kts 152°
2026-05-06 09:47 52.90034 -4.23258 1503 ft 176 kts 151°
2026-05-06 09:47 52.88955 -4.22326 1507 ft 174 kts 152°
2026-05-06 09:47 52.87891 -4.21421 1496 ft 171 kts 152°
2026-05-06 09:47 52.86834 -4.20516 1499 ft 172 kts 151°
2026-05-06 09:48 52.85771 -4.19609 1502 ft 172 kts 152°
2026-05-06 09:48 52.84701 -4.18695 1505 ft 174 kts 151°
2026-05-06 09:48 52.83617 -4.17770 1500 ft 176 kts 152°
2026-05-06 09:48 52.82531 -4.16849 1500 ft 175 kts 152°
2026-05-06 09:49 52.81454 -4.15926 1502 ft 174 kts 151°
2026-05-06 09:49 52.80387 -4.15001 1503 ft 173 kts 152°
2026-05-06 09:49 52.79322 -4.14099 1498 ft 171 kts 151°
2026-05-06 09:49 52.78269 -4.13198 1503 ft 175 kts 151°
2026-05-06 09:50 52.77190 -4.12256 1501 ft 176 kts 150°
2026-05-06 09:50 52.76099 -4.11308 1504 ft 178 kts 151°
2026-05-06 09:50 52.74995 -4.10357 1502 ft 180 kts 152°
2026-05-06 09:50 52.73874 -4.09413 1504 ft 182 kts 151°
2026-05-06 09:51 52.72750 -4.08452 1496 ft 182 kts 151°
2026-05-06 09:51 52.71833 -4.07095 1416 ft 182 kts 116°
2026-05-06 09:51 52.71792 -4.05080 1387 ft 177 kts 75°
2026-05-06 09:51 52.72133 -4.03182 1561 ft 171 kts 77°
2026-05-06 09:52 52.72431 -4.01258 1551 ft 176 kts 77°
2026-05-06 09:52 52.72817 -3.99317 1496 ft 182 kts 64°
2026-05-06 09:52 52.73531 -3.97603 1499 ft 179 kts 56°
2026-05-06 09:52 52.74228 -3.95906 1519 ft 179 kts 59°
2026-05-06 09:53 52.74810 -3.94089 1506 ft 181 kts 66°
2026-05-06 09:53 52.75040 -3.92082 1429 ft 182 kts 100°
2026-05-06 09:53 52.74714 -3.90106 1506 ft 175 kts 104°
2026-05-06 09:53 52.74711 -3.88101 1499 ft 180 kts 79°
2026-05-06 09:54 52.75015 -3.86096 1529 ft 179 kts 78°
2026-05-06 09:54 52.75295 -3.84107 1521 ft 177 kts 77°
2026-05-06 09:54 52.75367 -3.82093 1445 ft 181 kts 106°
2026-05-06 09:54 52.74522 -3.80631 1320 ft 183 kts 157°
2026-05-06 09:55 52.73285 -3.80820 1299 ft 187 kts 209°
2026-05-06 09:55 52.72418 -3.82393 1439 ft 183 kts 233°
2026-05-06 09:55 52.71646 -3.83882 1845 ft 155 kts 217°
2026-05-06 09:55 52.70680 -3.84764 1612 ft 169 kts 206°
2026-05-06 09:56 52.69732 -3.85966 1474 ft 171 kts 222°
2026-05-06 09:56 52.68867 -3.87307 1519 ft 171 kts 219°
2026-05-06 09:56 52.67749 -3.87899 1378 ft 174 kts 172°
2026-05-06 09:56 52.66759 -3.86861 1352 ft 173 kts 125°
2026-05-06 09:57 52.66125 -3.85231 1580 ft 168 kts 124°
2026-05-06 09:57 52.65173 -3.84055 1526 ft 181 kts 157°
2026-05-06 09:57 52.63917 -3.84086 1464 ft 187 kts 197°
2026-05-06 09:57 52.62693 -3.84778 1553 ft 186 kts 190°
2026-05-06 09:58 52.61395 -3.84817 1446 ft 190 kts 174°
2026-05-06 09:58 52.60077 -3.84881 1281 ft 190 kts 183°
2026-05-06 09:58 52.58833 -3.84376 969 ft 186 kts 143°
2026-05-06 09:58 52.58271 -3.82650 891 ft 171 kts 92°
2026-05-06 09:59 52.58738 -3.80956 856 ft 172 kts 42°
2026-05-06 09:59 52.59754 -3.79987 1050 ft 165 kts 32°
2026-05-06 09:59 52.60743 -3.78981 1106 ft 172 kts 36°
2026-05-06 09:59 52.61523 -3.77445 981 ft 181 kts 68°
2026-05-06 10:00 52.62032 -3.75565 652 ft 181 kts 61°
2026-05-06 10:00 52.62780 -3.74046 724 ft 161 kts 46°
2026-05-06 10:00 52.63571 -3.72822 659 ft 156 kts 43°
2026-05-06 10:00 52.64428 -3.71751 622 ft 157 kts 28°
2026-05-06 10:01 52.65483 -3.71426 705 ft 150 kts
2026-05-06 10:01 52.66514 -3.71220 786 ft 147 kts 17°
2026-05-06 10:01 52.67472 -3.70631 695 ft 152 kts 25°
2026-05-06 10:01 52.68432 -3.69809 576 ft 156 kts 32°
2026-05-06 10:02 52.69379 -3.69101 650 ft 149 kts 14°
2026-05-06 10:02 52.70394 -3.69037 740 ft 141 kts
2026-05-06 10:02 52.71359 -3.68959 826 ft 138 kts 359°
2026-05-06 10:02 52.72224 -3.69708 765 ft 155 kts 309°
2026-05-06 10:03 52.72815 -3.71199 789 ft 157 kts 310°
2026-05-06 10:03 52.73266 -3.72773 905 ft 151 kts 269°
2026-05-06 10:03 52.73107 -3.74424 1132 ft 135 kts 261°
2026-05-06 10:03 52.73216 -3.75893 1314 ft 136 kts 299°
2026-05-06 10:04 52.73705 -3.77299 1339 ft 146 kts 299°
2026-05-06 10:04 52.73967 -3.78969 1299 ft 157 kts 270°
2026-05-06 10:04 52.73607 -3.80701 1226 ft 167 kts 229°
2026-05-06 10:04 52.72744 -3.81962 1367 ft 163 kts 219°
2026-05-06 10:05 52.71880 -3.83117 1683 ft 158 kts 215°
2026-05-06 10:05 52.71003 -3.84225 1961 ft 158 kts 216°
2026-05-06 10:05 52.70103 -3.85368 2020 ft 170 kts 214°
2026-05-06 10:05 52.69147 -3.86599 2000 ft 178 kts 217°
2026-05-06 10:06 52.68273 -3.88131 2008 ft 188 kts 229°
2026-05-06 10:06 52.67415 -3.89829 2011 ft 196 kts 228°
2026-05-06 10:06 52.66531 -3.91540 2005 ft 195 kts 229°
2026-05-06 10:06 52.65654 -3.93242 2005 ft 195 kts 228°
2026-05-06 10:07 52.64773 -3.94920 1989 ft 191 kts 227°
2026-05-06 10:07 52.63913 -3.96575 2007 ft 191 kts 228°
2026-05-06 10:07 52.63046 -3.98243 2004 ft 193 kts 228°
2026-05-06 10:07 52.62170 -3.99909 2000 ft 193 kts 227°
2026-05-06 10:08 52.61306 -4.01582 1998 ft 191 kts 227°
2026-05-06 10:08 52.60460 -4.03221 2005 ft 191 kts 227°
2026-05-06 10:08 52.59460 -4.04685 1936 ft 193 kts 202°
2026-05-06 10:08 52.58171 -4.05109 1974 ft 184 kts 186°
2026-05-06 10:09 52.56926 -4.05482 2039 ft 182 kts 188°
2026-05-06 10:09 52.55675 -4.05869 2020 ft 188 kts 188°
2026-05-06 10:09 52.54378 -4.06270 2006 ft 191 kts 188°
2026-05-06 10:09 52.53074 -4.06664 1994 ft 189 kts 188°
2026-05-06 10:10 52.51781 -4.07068 1994 ft 184 kts 188°
2026-05-06 10:10 52.50538 -4.07449 2002 ft 185 kts 188°
2026-05-06 10:10 52.49267 -4.07839 2000 ft 186 kts 187°
2026-05-06 10:10 52.47990 -4.08227 1996 ft 187 kts 188°
2026-05-06 10:11 52.46707 -4.08616 1993 ft 188 kts 188°
2026-05-06 10:11 52.45428 -4.09008 1997 ft 187 kts 188°
2026-05-06 10:11 52.44152 -4.09401 1995 ft 186 kts 188°
2026-05-06 10:11 52.42875 -4.09797 1998 ft 187 kts 188°
2026-05-06 10:12 52.41590 -4.10183 1999 ft 189 kts 188°
2026-05-06 10:12 52.40293 -4.10573 1992 ft 189 kts 188°
2026-05-06 10:12 52.39005 -4.10968 1992 ft 188 kts 188°
2026-05-06 10:12 52.37726 -4.11363 1990 ft 187 kts 188°
2026-05-06 10:13 52.36447 -4.11756 1993 ft 187 kts 187°
2026-05-06 10:13 52.35168 -4.12150 1991 ft 188 kts 188°
2026-05-06 10:13 52.33882 -4.12536 1980 ft 187 kts 187°
2026-05-06 10:13 52.32598 -4.12916 1995 ft 190 kts 188°
2026-05-06 10:14 52.31289 -4.13308 1988 ft 191 kts 187°
2026-05-06 10:14 52.29993 -4.13706 1986 ft 189 kts 188°
2026-05-06 10:14 52.28717 -4.14090 1990 ft 185 kts 187°
2026-05-06 10:14 52.27439 -4.14474 1988 ft 188 kts 188°
2026-05-06 10:15 52.26149 -4.14846 1989 ft 189 kts 188°
2026-05-06 10:15 52.24852 -4.15237 1993 ft 190 kts 188°
2026-05-06 10:15 52.23545 -4.15630 1990 ft 191 kts 188°
2026-05-06 10:15 52.22245 -4.16018 1982 ft 189 kts 188°
2026-05-06 10:16 52.20957 -4.16401 1987 ft 189 kts 188°
2026-05-06 10:16 52.19666 -4.16772 2000 ft 189 kts 188°
2026-05-06 10:16 52.18356 -4.17163 1985 ft 193 kts 188°
2026-05-06 10:16 52.17037 -4.17540 1978 ft 192 kts 188°
2026-05-06 10:17 52.15730 -4.17895 1985 ft 189 kts 188°
2026-05-06 10:17 52.14435 -4.18255 1987 ft 189 kts 187°
2026-05-06 10:17 52.13578 -4.18497 1986 ft 189 kts 188°
2026-05-06 10:17 52.12290 -4.18871 1990 ft 189 kts 188°
2026-05-06 10:18 52.10565 -4.19361 1986 ft 191 kts 188°
2026-05-06 10:18 52.09255 -4.19718 1985 ft 192 kts 187°
2026-05-06 10:18 52.07937 -4.20076 1990 ft 192 kts 188°
2026-05-06 10:18 52.06624 -4.20432 1982 ft 190 kts 188°
2026-05-06 10:19 52.05741 -4.20675 1983 ft 191 kts 188°
2026-05-06 10:19 52.04011 -4.21154 1985 ft 191 kts 188°
2026-05-06 10:19 52.03124 -4.21403 1981 ft 192 kts 188°
2026-05-06 10:19 52.01808 -4.21757 1982 ft 192 kts 188°
2026-05-06 10:20 52.00493 -4.22104 1984 ft 191 kts 188°
2026-05-06 10:20 51.99180 -4.22445 1984 ft 191 kts 188°
2026-05-06 10:20 51.97880 -4.22875 1957 ft 193 kts 200°
2026-05-06 10:20 51.96973 -4.24412 1830 ft 195 kts 250°
2026-05-06 10:21 51.97053 -4.26518 1833 ft 186 kts 292°
2026-05-06 10:21 51.97806 -4.28100 1963 ft 181 kts 333°
2026-05-06 10:21 51.99023 -4.28612 2037 ft 181 kts 351°
2026-05-06 10:21 52.00248 -4.29062 2067 ft 185 kts 348°
2026-05-06 10:22 52.01516 -4.29548 2022 ft 188 kts 349°
2026-05-06 10:22 52.02759 -4.30168 1970 ft 187 kts 338°
2026-05-06 10:22 52.03911 -4.31100 1992 ft 184 kts 338°
2026-05-06 10:22 52.05101 -4.31908 1994 ft 186 kts 341°
2026-05-06 10:23 52.06305 -4.32641 1991 ft 184 kts 342°
2026-05-06 10:23 52.07516 -4.33293 1982 ft 183 kts 345°
2026-05-06 10:23 52.08737 -4.33893 1984 ft 183 kts 346°
2026-05-06 10:23 52.09965 -4.34429 1987 ft 183 kts 348°
2026-05-06 10:24 52.11203 -4.34919 1983 ft 183 kts 350°
2026-05-06 10:24 52.12444 -4.35366 1986 ft 183 kts 351°
2026-05-06 10:24 52.13701 -4.35775 1986 ft 185 kts 351°
2026-05-06 10:24 52.14972 -4.36156 1980 ft 185 kts 352°
2026-05-06 10:25 52.16231 -4.36515 1984 ft 182 kts 352°
2026-05-06 10:25 52.17481 -4.36849 1987 ft 183 kts 353°
2026-05-06 10:25 52.18743 -4.37153 1986 ft 185 kts 354°
2026-05-06 10:25 52.20011 -4.37437 2048 ft 182 kts 354°
2026-05-06 10:26 52.21249 -4.37697 2197 ft 178 kts 355°
2026-05-06 10:26 52.22477 -4.37951 2353 ft 177 kts 355°
2026-05-06 10:26 52.23698 -4.38198 2478 ft 177 kts 355°
2026-05-06 10:26 52.24935 -4.38443 2489 ft 181 kts 355°
2026-05-06 10:27 52.26205 -4.38672 2488 ft 186 kts 355°
2026-05-06 10:27 52.27495 -4.38895 2486 ft 186 kts 356°
2026-05-06 10:27 52.28773 -4.39111 2486 ft 183 kts 356°
2026-05-06 10:27 52.30038 -4.39329 2485 ft 183 kts 355°
2026-05-06 10:28 52.31302 -4.39543 2493 ft 183 kts 356°
2026-05-06 10:28 52.32572 -4.39758 2490 ft 183 kts 356°
2026-05-06 10:28 52.33820 -4.39971 2490 ft 183 kts 356°
2026-05-06 10:28 52.35085 -4.40167 2489 ft 183 kts 356°
2026-05-06 10:29 52.36352 -4.40363 2490 ft 183 kts 356°
2026-05-06 10:29 52.37621 -4.40555 2534 ft 181 kts 356°
2026-05-06 10:29 52.38853 -4.40768 2732 ft 176 kts 356°
2026-05-06 10:29 52.40067 -4.40961 2949 ft 174 kts 356°
2026-05-06 10:30 52.41265 -4.41137 3144 ft 172 kts 356°
2026-05-06 10:30 52.42452 -4.41322 3324 ft 170 kts 356°
2026-05-06 10:30 52.43628 -4.41502 3498 ft 169 kts 356°
2026-05-06 10:30 52.44794 -4.41683 3666 ft 168 kts 356°
2026-05-06 10:31 52.45952 -4.41844 3847 ft 166 kts 357°
2026-05-06 10:31 52.47102 -4.42003 4012 ft 166 kts 356°
2026-05-06 10:31 52.48258 -4.42169 4168 ft 168 kts 356°
2026-05-06 10:31 52.49423 -4.42348 4325 ft 168 kts 356°
2026-05-06 10:32 52.50585 -4.42534 4484 ft 168 kts 356°
2026-05-06 10:32 52.51749 -4.42694 4644 ft 168 kts 357°
2026-05-06 10:32 52.52911 -4.42860 4796 ft 167 kts 356°
2026-05-06 10:32 52.54065 -4.43053 4950 ft 166 kts 355°
2026-05-06 10:33 52.55226 -4.43242 4999 ft 170 kts 355°
2026-05-06 10:33 52.56425 -4.43431 4994 ft 175 kts 356°
2026-05-06 10:33 52.57649 -4.43623 4992 ft 178 kts 356°
2026-05-06 10:33 52.58887 -4.43817 4995 ft 180 kts 356°
2026-05-06 10:34 52.60136 -4.44012 4993 ft 181 kts 356°
2026-05-06 10:34 52.61395 -4.44186 4989 ft 182 kts 357°
2026-05-06 10:34 52.62660 -4.44346 4998 ft 183 kts 356°
2026-05-06 10:34 52.63929 -4.44505 4996 ft 183 kts 356°
2026-05-06 10:35 52.65199 -4.44667 4995 ft 183 kts 357°
2026-05-06 10:35 52.66470 -4.44838 4997 ft 184 kts 356°
2026-05-06 10:35 52.67748 -4.45036 4999 ft 185 kts 356°
2026-05-06 10:35 52.69030 -4.45231 4998 ft 185 kts 356°
2026-05-06 10:36 52.70315 -4.45432 4996 ft 186 kts 356°
2026-05-06 10:36 52.71599 -4.45632 4997 ft 185 kts 356°
2026-05-06 10:36 52.72877 -4.45833 5004 ft 184 kts 355°
2026-05-06 10:36 52.74152 -4.46031 4997 ft 184 kts 356°
2026-05-06 10:37 52.75424 -4.46229 4998 ft 183 kts 355°
2026-05-06 10:37 52.76695 -4.46423 4997 ft 183 kts 355°
2026-05-06 10:37 52.77963 -4.46617 5000 ft 183 kts 356°
2026-05-06 10:37 52.79228 -4.46814 4998 ft 183 kts 356°
2026-05-06 10:38 52.80491 -4.47009 4996 ft 182 kts 356°
2026-05-06 10:38 52.81756 -4.47173 5002 ft 182 kts 356°
2026-05-06 10:38 52.83017 -4.47330 5003 ft 182 kts 357°
2026-05-06 10:38 52.84279 -4.47492 4998 ft 182 kts 356°
2026-05-06 10:39 52.85539 -4.47686 5005 ft 183 kts 355°
2026-05-06 10:39 52.86814 -4.47882 5008 ft 184 kts 356°
2026-05-06 10:39 52.88092 -4.48018 5003 ft 184 kts 360°
2026-05-06 10:39 52.89354 -4.48044 5004 ft 184 kts 360°
2026-05-06 10:40 52.90630 -4.48095 5004 ft 183 kts 359°
2026-05-06 10:40 52.91907 -4.48175 5005 ft 184 kts 359°
2026-05-06 10:40 52.93180 -4.48250 5003 ft 183 kts 359°
2026-05-06 10:40 52.94317 -4.47935 4860 ft 148 kts 32°
2026-05-06 10:41 52.94910 -4.46755 4607 ft 119 kts 52°
2026-05-06 10:41 52.95379 -4.45834 4510 ft 93 kts 45°
2026-05-06 10:41 52.95794 -4.45082 4292 ft 87 kts 45°
2026-05-06 10:41 52.96229 -4.44368 4017 ft 87 kts 38°
2026-05-06 10:42 52.96854 -4.44335 3338 ft 112 kts 339°
2026-05-06 10:42 52.97289 -4.44651 3013 ft 115 kts 340°
2026-05-06 10:42 52.97541 -4.44807 2920 ft 109 kts 343°
2026-05-06 10:42 52.98199 -4.45171 2741 ft 90 kts 344°
2026-05-06 10:43 52.98771 -4.45478 2594 ft 84 kts 345°
2026-05-06 10:43 52.99317 -4.45749 2403 ft 81 kts 346°
2026-05-06 10:43 52.99864 -4.46028 2104 ft 85 kts 345°
2026-05-06 10:44 53.00415 -4.46284 1851 ft 84 kts 346°
2026-05-06 10:45 53.08745 -4.49593 1854 ft 3432 kts 350°
2026-05-06 10:45 53.15170 -4.50736 1853 ft 0 kts 359°
2026-05-06 10:45 53.20806 -4.46864 1854 ft 3300 kts 348°
2026-05-06 10:45 53.21218 -4.47025 1817 ft 79 kts 344°
2026-05-06 10:46 53.21594 -4.47631 1642 ft 78 kts 313°
2026-05-06 10:46 53.21914 -4.48359 1341 ft 77 kts 307°
2026-05-06 10:46 53.22207 -4.49042 1167 ft 69 kts 311°
2026-05-06 10:46 53.22505 -4.49636 986 ft 72 kts 322°
2026-05-06 10:47 53.22928 -4.50127 738 ft 74 kts 316°
2026-05-06 10:47 53.23311 -4.50798 427 ft 83 kts 316°
2026-05-06 10:47 53.23699 -4.51460 238 ft 78 kts 309°
2026-05-06 10:47 53.24057 -4.52086 90 ft 68 kts 308°
2026-05-06 10:48 53.24329 -4.52619 33 ft 47 kts 308°
2026-05-06 10:48 53.24507 -4.52919 30 ft 28 kts 358°
2026-05-06 10:48 53.24643 -4.52793 33 ft 17 kts 28°
2026-05-06 10:48 53.24725 -4.52756 35 ft 8 kts 345°
2026-05-06 10:49 53.24738 -4.52763 35 ft 0 kts 331°